Time;durP1;ratioP1;P1;durP2;ratioP2;P2;SDS_P1;SDS_P2;PMS_P1;PMS_P2;Temp;Humidity;BMP_temperature;BMP_pressure;BME280_temperature;BME280_humidity;BME280_pressure;Samples;Min_cycle;Max_cycle;Signal;HPM_P1;HPM_P2
2021/08/10 00:02:08;;;;;;;10.30;2.85;;;20.30;97.40;;;;;;5066522;28;20470;-74
2021/08/10 00:04:34;;;;;;;8.88;3.10;;;20.40;97.40;;;;;;5050044;28;20033;-74
2021/08/10 00:07:00;;;;;;;6.90;3.47;;;20.40;97.20;;;;;;5060824;28;20093;-74
2021/08/10 00:09:26;;;;;;;5.03;2.80;;;20.40;97.30;;;;;;5067774;28;20025;-74
2021/08/10 00:11:51;;;;;;;7.00;3.10;;;20.30;97.40;;;;;;5048574;28;20028;-74
2021/08/10 00:14:17;;;;;;;6.82;3.13;;;20.10;97.90;;;;;;5066800;28;20543;-74
2021/08/10 00:16:43;;;;;;;6.88;3.30;;;20.10;97.90;;;;;;5068329;28;20024;-74
2021/08/10 00:19:09;;;;;;;4.70;2.50;;;20.10;97.80;;;;;;5066597;28;20043;-74
2021/08/10 00:21:35;;;;;;;5.75;2.42;;;20.00;98.10;;;;;;5067736;28;20024;-74
2021/08/10 00:24:00;;;;;;;5.88;2.40;;;19.80;98.30;;;;;;5072535;28;20036;-75
2021/08/10 00:26:27;;;;;;;6.40;3.17;;;19.90;97.90;;;;;;5070747;28;20028;-75
2021/08/10 00:28:52;;;;;;;5.78;2.63;;;20.10;97.70;;;;;;5073128;28;20032;-75
2021/08/10 00:31:19;;;;;;;4.70;2.72;;;20.30;97.20;;;;;;5058943;28;20383;-75
2021/08/10 00:33:45;;;;;;;7.22;2.90;;;20.10;97.60;;;;;;5073987;28;20066;-74
2021/08/10 00:36:14;;;;;;;7.32;3.28;;;19.90;97.90;;;;;;5055510;28;20033;-75
2021/08/10 00:38:41;;;;;;;5.85;2.20;;;19.60;98.30;;;;;;5058122;28;20037;-75
2021/08/10 00:41:06;;;;;;;5.65;2.53;;;19.50;98.50;;;;;;5067759;28;20111;-75
2021/08/10 00:43:39;;;;;;;6.90;2.67;;;19.50;98.70;;;;;;5073332;28;20096;-75
2021/08/10 00:46:09;;;;;;;5.50;2.92;;;19.60;98.60;;;;;;5070209;28;20082;-75
2021/08/10 00:48:36;;;;;;;6.28;2.63;;;19.50;98.60;;;;;;5073412;28;20039;-75
2021/08/10 00:51:04;;;;;;;8.38;3.38;;;19.60;98.40;;;;;;5064544;28;20074;-75
2021/08/10 00:53:30;;;;;;;7.00;3.53;;;19.60;98.40;;;;;;5068189;28;20136;-75
2021/08/10 00:55:56;;;;;;;8.68;3.00;;;19.50;98.60;;;;;;5067373;28;20108;-74
2021/08/10 00:58:22;;;;;;;7.75;3.75;;;19.30;99.00;;;;;;5073119;28;20040;-75
2021/08/10 01:00:48;;;;;;;6.95;2.55;;;19.20;99.20;;;;;;5052123;28;20021;-75
2021/08/10 01:03:14;;;;;;;5.53;2.63;;;19.10;99.20;;;;;;5069434;28;20033;-75
2021/08/10 01:05:45;;;;;;;6.82;2.50;;;19.20;99.20;;;;;;5067480;28;20485;-74
2021/08/10 01:08:37;;;;;;;7.22;3.00;;;19.20;99.30;;;;;;5073242;28;20045;-75
2021/08/10 01:11:15;;;;;;;6.70;3.05;;;19.30;98.70;;;;;;5066015;28;20063;-74
2021/08/10 01:13:56;;;;;;;6.82;2.92;;;19.30;98.80;;;;;;5068529;28;20029;-75
2021/08/10 01:16:51;;;;;;;6.82;2.75;;;19.10;99.20;;;;;;5053470;28;20497;-75
2021/08/10 01:19:35;;;;;;;6.47;3.58;;;19.10;99.10;;;;;;5072223;28;20044;-75
2021/08/10 01:22:02;;;;;;;5.82;2.50;;;19.30;99.00;;;;;;5068050;28;20116;-74
2021/08/10 01:24:45;;;;;;;4.55;2.90;;;19.20;99.00;;;;;;5073089;28;20024;-75
2021/08/10 01:27:29;;;;;;;9.52;3.10;;;19.60;98.20;;;;;;5052627;28;20040;-75
2021/08/10 01:29:57;;;;;;;;;;;19.70;98.00;;;;;;5071673;28;20031;-75
2021/08/10 01:32:23;;;;;;;5.63;3.08;;;19.60;98.20;;;;;;5059587;28;19908;-75
2021/08/10 01:34:49;;;;;;;5.45;2.80;;;19.60;98.30;;;;;;5069952;28;20054;-75
2021/08/10 01:37:22;;;;;;;4.78;2.53;;;19.70;98.10;;;;;;5059023;28;20051;-75
2021/08/10 01:39:51;;;;;;;6.70;3.25;;;19.60;98.20;;;;;;5058952;28;20066;-75
2021/08/10 01:42:18;;;;;;;8.35;3.25;;;19.60;98.40;;;;;;5060753;28;20600;-74
2021/08/10 01:44:45;;;;;;;7.00;2.90;;;19.50;98.50;;;;;;5064923;28;20730;-75
2021/08/10 01:47:11;;;;;;;8.43;2.65;;;19.30;98.70;;;;;;5062988;28;20116;-74
2021/08/10 01:49:39;;;;;;;6.15;3.60;;;19.70;98.10;;;;;;5068730;28;20482;-76
2021/08/10 01:52:08;;;;;;;6.18;2.97;;;19.50;98.40;;;;;;5067704;28;20020;-75
2021/08/10 01:54:36;;;;;;;6.80;3.03;;;19.20;98.90;;;;;;5070133;28;20111;-75
2021/08/10 01:57:02;;;;;;;7.90;2.58;;;19.00;99.30;;;;;;5057001;28;20390;-74
2021/08/10 01:59:29;;;;;;;8.65;3.47;;;19.00;99.40;;;;;;5060418;28;20370;-75
2021/08/10 02:01:55;;;;;;;6.63;2.95;;;18.90;99.70;;;;;;5064451;28;20032;-74
2021/08/10 02:04:24;;;;;;;4.75;2.97;;;19.00;99.40;;;;;;5039566;28;20040;-74
2021/08/10 02:06:51;;;;;;;5.82;3.10;;;19.00;99.70;;;;;;5054616;28;20017;-74
2021/08/10 02:09:20;;;;;;;5.65;3.33;;;18.90;99.40;;;;;;5051585;28;20438;-75
2021/08/10 02:11:48;;;;;;;6.72;3.13;;;19.10;99.20;;;;;;5063176;28;20051;-74
2021/08/10 02:14:20;;;;;;;7.88;3.17;;;19.30;98.40;;;;;;5070194;28;20037;-75
2021/08/10 02:16:45;;;;;;;5.30;2.92;;;19.50;98.50;;;;;;5070759;28;20051;-74
2021/08/10 02:19:11;;;;;;;5.60;2.67;;;19.20;99.00;;;;;;5071022;28;20068;-74
2021/08/10 02:21:48;;;;;;;5.55;3.33;;;18.90;99.50;;;;;;5067509;28;20046;-75
2021/08/10 02:24:27;;;;;;;9.35;2.80;;;18.90;99.70;;;;;;5070164;28;20024;-75
2021/08/10 02:27:00;;;;;;;6.78;3.28;;;18.80;99.40;;;;;;5052668;28;20548;-75
2021/08/10 02:29:29;;;;;;;4.55;2.40;;;19.00;99.10;;;;;;5058460;28;20480;-75
2021/08/10 02:31:55;;;;;;;11.80;3.20;;;19.00;99.10;;;;;;5066487;28;20040;-75
2021/08/10 02:34:21;;;;;;;4.60;2.83;;;18.70;99.80;;;;;;5065197;28;20094;-74
2021/08/10 02:36:51;;;;;;;7.55;3.20;;;18.50;99.90;;;;;;5070003;28;20129;-74
2021/08/10 02:39:18;;;;;;;8.82;3.08;;;18.50;99.90;;;;;;5063545;28;20025;-74
2021/08/10 02:41:46;;;;;;;5.28;3.00;;;18.50;99.90;;;;;;5054044;28;20037;-75
2021/08/10 02:44:14;;;;;;;6.43;3.08;;;18.60;99.90;;;;;;5058942;28;20056;-75
2021/08/10 02:46:40;;;;;;;5.38;2.78;;;18.40;99.90;;;;;;5069536;28;20039;-74
2021/08/10 02:49:10;;;;;;;4.75;2.83;;;18.30;99.90;;;;;;5070324;28;20378;-74
2021/08/10 02:51:37;;;;;;;5.45;2.72;;;18.30;99.90;;;;;;5040056;28;20064;-74
2021/08/10 02:54:04;;;;;;;7.50;2.83;;;18.30;99.90;;;;;;5052210;28;20039;-75
2021/08/10 02:56:33;;;;;;;5.68;2.65;;;18.30;99.90;;;;;;5057791;28;20051;-75
2021/08/10 02:59:05;;;;;;;5.43;2.58;;;18.20;99.90;;;;;;5066623;28;20036;-75
2021/08/10 03:01:35;;;;;;;7.40;3.58;;;18.20;99.90;;;;;;5069696;28;20037;-75
2021/08/10 03:04:03;;;;;;;5.05;2.67;;;18.20;99.90;;;;;;5051121;28;20025;-75
2021/08/10 03:06:31;;;;;;;7.82;2.50;;;18.20;99.90;;;;;;5059590;28;20033;-75
2021/08/10 03:09:02;;;;;;;6.95;3.00;;;18.20;99.90;;;;;;5062484;28;20056;-75
2021/08/10 03:11:33;;;;;;;6.57;2.92;;;18.40;99.90;;;;;;5057402;28;20066;-75
2021/08/10 03:14:01;;;;;;;3.88;2.30;;;18.40;99.90;;;;;;5054574;28;20013;-75
2021/08/10 03:16:30;;;;;;;6.93;2.97;;;18.50;99.90;;;;;;5057519;28;20047;-75
2021/08/10 03:18:59;;;;;;;7.90;3.08;;;18.30;99.90;;;;;;5062282;28;20037;-75
2021/08/10 03:21:27;;;;;;;8.32;3.17;;;18.10;99.90;;;;;;5063672;28;20559;-74
2021/08/10 03:23:54;;;;;;;8.98;3.25;;;18.20;99.90;;;;;;5046754;28;20025;-75
2021/08/10 03:26:23;;;;;;;6.70;2.72;;;18.20;99.90;;;;;;5056431;28;20024;-75
2021/08/10 03:28:50;;;;;;;5.40;3.33;;;18.20;99.90;;;;;;5063586;28;20025;-75
2021/08/10 03:31:17;;;;;;;5.60;3.38;;;18.30;99.90;;;;;;5042844;28;20603;-75
2021/08/10 03:33:43;;;;;;;5.47;2.60;;;18.40;99.90;;;;;;5052878;28;20028;-75
2021/08/10 03:36:10;;;;;;;8.63;3.30;;;18.30;99.90;;;;;;5038977;28;21030;-75
2021/08/10 03:38:37;;;;;;;5.60;2.70;;;18.10;99.90;;;;;;5062416;28;20040;-75
2021/08/10 03:41:04;;;;;;;6.68;2.80;;;18.10;99.90;;;;;;5060091;28;20599;-74
2021/08/10 03:43:30;;;;;;;8.85;3.53;;;18.00;99.90;;;;;;5062618;28;20036;-75
2021/08/10 03:45:57;;;;;;;6.82;3.47;;;17.80;99.90;;;;;;5063170;28;20028;-75
2021/08/10 03:48:23;;;;;;;7.45;3.17;;;17.80;99.90;;;;;;5059407;28;20562;-75
2021/08/10 03:50:54;;;;;;;6.40;2.97;;;18.20;99.90;;;;;;5055795;28;20056;-75
2021/08/10 03:53:21;;;;;;;6.13;3.17;;;18.10;99.90;;;;;;5060977;28;20103;-75
2021/08/10 03:55:50;;;;;;;7.05;2.92;;;17.90;99.90;;;;;;5056974;28;20144;-75
2021/08/10 03:58:20;;;;;;;5.45;2.83;;;18.00;99.90;;;;;;5053080;28;20040;-74
2021/08/10 04:00:48;;;;;;;5.60;2.70;;;18.10;99.90;;;;;;5063975;28;20054;-75
2021/08/10 04:03:14;;;;;;;6.13;2.85;;;17.80;99.90;;;;;;5064129;28;20098;-74
2021/08/10 04:05:45;;;;;;;5.53;2.75;;;17.90;99.90;;;;;;5059770;28;20606;-75
2021/08/10 04:08:13;;;;;;;6.47;2.92;;;17.90;99.90;;;;;;5049753;28;20052;-74
2021/08/10 04:10:44;;;;;;;9.07;3.47;;;17.90;99.90;;;;;;5044300;28;20032;-75
2021/08/10 04:13:11;;;;;;;6.38;3.33;;;17.80;99.90;;;;;;5061499;28;20066;-75
2021/08/10 04:15:45;;;;;;;5.97;3.30;;;17.80;99.90;;;;;;5046962;28;20622;-75
2021/08/10 04:18:14;;;;;;;6.25;2.85;;;18.00;99.90;;;;;;5048259;28;20148;-75
2021/08/10 04:20:40;;;;;;;5.20;2.75;;;18.00;99.90;;;;;;5062490;28;20064;-75
2021/08/10 04:23:06;;;;;;;10.10;2.85;;;17.90;99.90;;;;;;5063632;28;20513;-75
2021/08/10 04:25:33;;;;;;;5.50;3.08;;;18.00;99.90;;;;;;5065067;28;20737;-75
2021/08/10 04:27:59;;;;;;;7.78;3.00;;;18.10;99.90;;;;;;5064859;28;20081;-75
2021/08/10 04:30:24;;;;;;;6.57;3.22;;;18.10;99.90;;;;;;5056926;28;20454;-75
2021/08/10 04:32:50;;;;;;;6.10;2.97;;;18.10;99.90;;;;;;5060032;28;20040;-75
2021/08/10 04:35:16;;;;;;;7.18;2.80;;;18.10;99.90;;;;;;5064242;28;20044;-75
2021/08/10 04:37:41;;;;;;;5.40;2.55;;;18.00;99.90;;;;;;5056116;28;20062;-75
2021/08/10 04:40:08;;;;;;;6.25;3.25;;;18.10;99.90;;;;;;5055565;28;20089;-75
2021/08/10 04:42:34;;;;;;;6.57;3.67;;;17.90;99.90;;;;;;5053586;28;20028;-74
2021/08/10 04:45:01;;;;;;;6.05;3.15;;;18.00;99.90;;;;;;5063203;28;20024;-75
2021/08/10 04:47:26;;;;;;;4.88;2.75;;;18.00;99.90;;;;;;5052782;28;20937;-75
2021/08/10 04:49:52;;;;;;;5.28;3.10;;;18.00;99.90;;;;;;5064426;28;20099;-75
2021/08/10 04:52:18;;;;;;;5.88;2.83;;;17.90;99.90;;;;;;5065125;28;20036;-75
2021/08/10 04:54:44;;;;;;;6.70;3.20;;;17.90;99.90;;;;;;5049357;28;20025;-75
2021/08/10 04:57:10;;;;;;;6.70;3.33;;;18.00;99.90;;;;;;5061486;28;20059;-75
2021/08/10 04:59:35;;;;;;;9.13;3.35;;;18.00;99.90;;;;;;5046811;28;20097;-75
2021/08/10 05:02:01;;;;;;;5.78;3.10;;;18.10;99.90;;;;;;5051099;28;20024;-75
2021/08/10 05:04:26;;;;;;;5.15;2.85;;;18.00;99.90;;;;;;5065196;28;20044;-75
2021/08/10 05:06:53;;;;;;;7.97;2.75;;;18.00;99.90;;;;;;5063669;28;20043;-75
2021/08/10 05:09:19;;;;;;;7.30;3.58;;;18.10;99.90;;;;;;5064634;28;20126;-75
2021/08/10 05:11:45;;;;;;;6.95;2.97;;;18.20;99.90;;;;;;5058441;28;20135;-75
2021/08/10 05:14:11;;;;;;;6.38;2.90;;;18.20;99.90;;;;;;5058188;28;20635;-75
2021/08/10 05:16:37;;;;;;;7.40;4.03;;;18.00;99.90;;;;;;5063146;28;20110;-75
2021/08/10 05:19:02;;;;;;;9.57;3.70;;;18.00;99.90;;;;;;5058340;28;20129;-74
2021/08/10 05:21:28;;;;;;;6.70;3.38;;;18.10;99.90;;;;;;5063379;28;20032;-74
2021/08/10 05:23:54;;;;;;;6.88;4.20;;;18.20;99.90;;;;;;5064646;28;20060;-74
2021/08/10 05:26:20;;;;;;;5.55;3.33;;;18.20;99.90;;;;;;5062068;28;20028;-75
2021/08/10 05:28:46;;;;;;;10.07;3.70;;;18.20;99.90;;;;;;5048914;28;20036;-76
2021/08/10 05:31:12;;;;;;;5.88;3.10;;;18.10;99.90;;;;;;5034140;28;20028;-78
2021/08/10 05:33:38;;;;;;;7.97;3.40;;;18.00;99.90;;;;;;5063156;28;20036;-77
2021/08/10 05:36:04;;;;;;;5.80;2.95;;;18.10;99.90;;;;;;5055464;28;20035;-79
2021/08/10 05:38:30;;;;;;;6.57;3.83;;;18.20;99.90;;;;;;5061354;28;20593;-79
2021/08/10 05:40:55;;;;;;;5.57;3.38;;;18.20;99.90;;;;;;5057727;28;20078;-79
2021/08/10 05:43:21;;;;;;;6.07;3.28;;;18.20;99.90;;;;;;5062841;28;20114;-79
2021/08/10 05:45:46;;;;;;;8.35;3.20;;;18.40;99.90;;;;;;5058312;28;20029;-79
2021/08/10 05:48:12;;;;;;;4.95;3.50;;;18.30;99.90;;;;;;5055320;28;20032;-79
2021/08/10 05:50:38;;;;;;;8.55;4.20;;;18.30;99.90;;;;;;5062924;28;20111;-79
2021/08/10 05:53:04;;;;;;;10.48;3.38;;;18.30;99.90;;;;;;5061784;28;20095;-79
2021/08/10 05:55:30;;;;;;;6.20;3.10;;;18.30;99.90;;;;;;5060806;28;20391;-79
2021/08/10 05:57:55;;;;;;;8.18;3.55;;;18.40;99.90;;;;;;5046890;28;20051;-78
2021/08/10 06:00:21;;;;;;;6.05;3.22;;;18.40;99.90;;;;;;5071718;28;20609;-74
2021/08/10 06:02:47;;;;;;;6.00;3.67;;;18.40;99.90;;;;;;5053970;28;20033;-76
2021/08/10 06:05:13;;;;;;;7.35;3.08;;;18.70;99.40;;;;;;5048816;28;20086;-76
2021/08/10 06:07:38;;;;;;;7.57;3.33;;;18.80;99.90;;;;;;5060594;28;20055;-75
2021/08/10 06:10:05;;;;;;;10.40;3.70;;;18.90;99.60;;;;;;5060423;28;20128;-76
2021/08/10 06:12:33;;;;;;;7.40;4.13;;;19.00;99.90;;;;;;5052957;28;20032;-76
2021/08/10 06:14:59;;;;;;;8.18;3.75;;;19.00;99.90;;;;;;5060767;28;20016;-76
2021/08/10 06:17:25;;;;;;;6.32;3.38;;;19.00;99.90;;;;;;5063504;28;20028;-76
2021/08/10 06:19:52;;;;;;;8.40;3.90;;;19.00;99.90;;;;;;5046466;28;20035;-76
2021/08/10 06:22:17;;;;;;;7.85;3.40;;;19.00;99.90;;;;;;5063522;28;20032;-76
2021/08/10 06:24:43;;;;;;;8.57;3.65;;;18.90;99.90;;;;;;5062204;28;20103;-76
2021/08/10 06:27:09;;;;;;;8.13;4.30;;;19.30;99.30;;;;;;5062190;28;20047;-76
2021/08/10 06:29:35;;;;;;;7.63;3.70;;;19.60;98.80;;;;;;5064220;28;20024;-76
2021/08/10 06:32:01;;;;;;;9.85;3.53;;;19.80;98.10;;;;;;5063298;28;20552;-76
2021/08/10 06:34:26;;;;;;;6.70;3.00;;;20.00;97.80;;;;;;5059854;28;20091;-76
2021/08/10 06:36:52;;;;;;;6.60;3.22;;;20.20;97.50;;;;;;5061105;28;20025;-76
2021/08/10 06:39:18;;;;;;;5.65;3.03;;;20.40;97.10;;;;;;5043721;28;20027;-76
2021/08/10 06:41:44;;;;;;;5.97;3.20;;;20.60;98.10;;;;;;5058968;28;20567;-76
2021/08/10 06:44:10;;;;;;;8.35;3.35;;;20.70;98.90;;;;;;5057035;28;20028;-76
2021/08/10 06:46:35;;;;;;;7.20;3.25;;;21.00;98.80;;;;;;5056091;28;20028;-76
2021/08/10 06:49:01;;;;;;;7.90;3.70;;;21.20;99.00;;;;;;5051786;28;20020;-76
2021/08/10 06:51:27;;;;;;;7.47;3.72;;;21.10;98.80;;;;;;5060979;28;20058;-76
2021/08/10 06:53:52;;;;;;;4.72;2.80;;;21.20;98.60;;;;;;5044334;28;20051;-76
2021/08/10 06:56:18;;;;;;;7.68;3.85;;;21.50;98.80;;;;;;5055674;28;20133;-75
2021/08/10 06:58:43;;;;;;;6.32;3.22;;;21.50;98.70;;;;;;5062458;28;20106;-76
2021/08/10 07:01:09;;;;;;;8.82;4.40;;;21.80;98.20;;;;;;5062717;28;20028;-74
2021/08/10 07:03:35;;;;;;;6.93;3.90;;;21.70;97.90;;;;;;5063939;28;20028;-74
2021/08/10 07:06:00;;;;;;;8.32;3.55;;;22.00;97.50;;;;;;5061506;28;20028;-75
2021/08/10 07:08:26;;;;;;;9.48;4.15;;;22.20;96.40;;;;;;5062204;28;20721;-73
2021/08/10 07:10:51;;;;;;;17.00;3.65;;;22.20;96.90;;;;;;5063623;28;20068;-73
2021/08/10 07:13:17;;;;;;;7.80;3.70;;;22.60;95.60;;;;;;5038195;28;20085;-73
2021/08/10 07:15:43;;;;;;;7.38;3.40;;;23.20;95.00;;;;;;5044068;28;20021;-73
2021/08/10 07:18:09;;;;;;;7.10;3.72;;;24.20;93.80;;;;;;5044218;28;20525;-74
2021/08/10 07:20:34;;;;;;;6.90;3.45;;;25.30;92.30;;;;;;5062378;28;20562;-73
2021/08/10 07:23:00;;;;;;;5.43;3.10;;;26.80;91.30;;;;;;5063029;28;20028;-73
2021/08/10 07:25:26;;;;;;;5.32;3.30;;;27.50;90.50;;;;;;5061396;28;20579;-73
2021/08/10 07:27:52;;;;;;;7.80;3.55;;;28.20;89.10;;;;;;5063979;28;20051;-75
2021/08/10 07:30:18;;;;;;;5.65;3.28;;;28.40;88.30;;;;;;5061950;28;20029;-75
2021/08/10 07:32:44;;;;;;;8.85;3.63;;;28.50;88.10;;;;;;5062501;28;20044;-74
2021/08/10 07:35:10;;;;;;;10.75;3.97;;;29.20;86.40;;;;;;5061657;28;20119;-76
2021/08/10 07:37:40;;;;;;;6.50;3.38;;;29.10;85.70;;;;;;5057490;28;20144;-77
2021/08/10 07:40:06;;;;;;;7.20;3.85;;;29.10;85.30;;;;;;5047436;28;20045;-76
2021/08/10 07:42:32;;;;;;;8.15;3.50;;;28.50;85.70;;;;;;5061395;28;20071;-73
2021/08/10 07:44:58;;;;;;;7.25;3.35;;;28.70;86.10;;;;;;5062280;28;20433;-73
2021/08/10 07:47:23;;;;;;;12.63;3.75;;;28.40;86.20;;;;;;5063195;28;20094;-73
2021/08/10 07:49:49;;;;;;;41.72;5.95;;;28.30;86.70;;;;;;5063971;28;20395;-75
2021/08/10 07:52:14;;;;;;;5.47;3.47;;;28.40;87.60;;;;;;5055745;28;21179;-74
2021/08/10 07:54:40;;;;;;;7.35;3.58;;;26.90;88.20;;;;;;5047331;28;20044;-75
2021/08/10 07:57:06;;;;;;;5.88;3.40;;;24.90;91.10;;;;;;5064104;28;20104;-75
2021/08/10 07:59:32;;;;;;;15.07;4.22;;;23.70;92.80;;;;;;5063181;28;20067;-75
2021/08/10 08:01:57;;;;;;;6.63;3.83;;;23.30;93.70;;;;;;5063007;28;20068;-74
2021/08/10 08:04:23;;;;;;;7.25;3.53;;;22.80;93.70;;;;;;5057998;28;20066;-76
2021/08/10 08:06:49;;;;;;;7.20;3.53;;;22.70;94.50;;;;;;5059916;28;20462;-74
2021/08/10 08:09:14;;;;;;;8.07;3.90;;;22.60;95.00;;;;;;5062076;28;20056;-74
2021/08/10 08:11:40;;;;;;;7.97;4.70;;;22.50;94.50;;;;;;5054331;28;20052;-74
2021/08/10 08:14:06;;;;;;;8.90;3.45;;;22.60;94.80;;;;;;5045509;28;20079;-75
2021/08/10 08:16:31;;;;;;;6.13;3.35;;;22.60;94.80;;;;;;5060887;28;20025;-74
2021/08/10 08:18:57;;;;;;;8.23;4.38;;;22.70;94.60;;;;;;5062168;28;20611;-74
2021/08/10 08:21:24;;;;;;;8.13;4.00;;;22.70;94.60;;;;;;5061184;28;20036;-74
2021/08/10 08:23:51;;;;;;;10.60;4.03;;;22.50;94.70;;;;;;5063063;28;20078;-75
2021/08/10 08:26:19;;;;;;;8.88;4.05;;;23.10;95.20;;;;;;5060120;28;20032;-76
2021/08/10 08:28:45;;;;;;;8.70;4.57;;;25.20;92.80;;;;;;5055977;28;20028;-75
2021/08/10 08:31:10;;;;;;;10.25;4.38;;;26.50;91.90;;;;;;5045762;28;20051;-75
2021/08/10 08:33:36;;;;;;;6.00;3.10;;;27.10;91.80;;;;;;5057782;28;20033;-74
2021/08/10 08:36:01;;;;;;;10.13;3.65;;;27.50;90.50;;;;;;5062102;28;20086;-75
2021/08/10 08:38:28;;;;;;;7.07;3.95;;;28.00;90.50;;;;;;5059399;28;20044;-75
2021/08/10 08:40:53;;;;;;;10.93;3.90;;;28.10;90.20;;;;;;5060222;28;20032;-75
2021/08/10 08:43:21;;;;;;;7.20;3.55;;;28.30;90.30;;;;;;5059503;28;20039;-75
2021/08/10 08:45:47;;;;;;;7.10;4.07;;;27.10;90.90;;;;;;5044857;28;20110;-75
2021/08/10 08:48:14;;;;;;;7.63;3.75;;;26.70;91.30;;;;;;5053224;28;20704;-75
2021/08/10 08:50:43;;;;;;;7.55;3.80;;;25.90;91.40;;;;;;5066752;28;20151;-75
2021/08/10 08:53:13;;;;;;;9.75;4.22;;;26.30;91.50;;;;;;5065956;28;20032;-75
2021/08/10 08:55:42;;;;;;;12.93;4.07;;;25.70;91.80;;;;;;5048668;28;20474;-74
2021/08/10 08:58:08;;;;;;;12.90;4.35;;;25.40;92.30;;;;;;5065892;28;20127;-74
2021/08/10 09:00:34;;;;;;;8.30;4.20;;;25.30;92.20;;;;;;5061739;28;20506;-75
2021/08/10 09:03:01;;;;;;;7.57;3.65;;;25.00;93.20;;;;;;5048857;28;20032;-75
2021/08/10 09:05:26;;;;;;;7.72;4.07;;;25.30;93.10;;;;;;5059002;28;20037;-75
2021/08/10 09:07:55;;;;;;;10.45;3.80;;;25.10;93.30;;;;;;5051426;28;20043;-75
2021/08/10 09:10:28;;;;;;;8.70;4.63;;;25.10;93.20;;;;;;5048793;28;20131;-75
2021/08/10 09:12:56;;;;;;;8.18;4.10;;;25.00;93.60;;;;;;5066699;28;20576;-74
2021/08/10 09:15:44;;;;;;;6.55;3.55;;;25.00;93.30;;;;;;5054167;28;20029;-76
2021/08/10 09:18:16;;;;;;;9.57;4.25;;;24.40;93.30;;;;;;5055855;28;20398;-75
2021/08/10 09:21:02;;;;;;;5.68;3.60;;;24.70;93.60;;;;;;5045779;28;20406;-75
2021/08/10 09:23:40;;;;;;;7.35;3.53;;;24.70;93.10;;;;;;5064059;28;20024;-75
2021/08/10 09:26:10;;;;;;;7.97;4.05;;;24.50;92.70;;;;;;5053525;28;20028;-75
2021/08/10 09:28:36;;;;;;;6.90;3.65;;;24.60;93.00;;;;;;5060742;28;20044;-75
2021/08/10 09:31:44;;;;;;;6.63;3.45;;;24.80;92.90;;;;;;5059545;28;20029;-75
2021/08/10 09:34:26;;;;;;;8.80;4.20;;;24.90;93.00;;;;;;5064906;28;20066;-75
2021/08/10 09:36:51;;;;;;;6.68;3.65;;;24.80;92.60;;;;;;5049820;28;20505;-75
2021/08/10 09:39:31;;;;;;;10.85;4.35;;;25.00;93.50;;;;;;5045434;28;20045;-75
2021/08/10 09:42:05;;;;;;;10.57;5.00;;;25.10;93.80;;;;;;5061053;28;20033;-74
2021/08/10 09:44:32;;;;;;;6.63;3.92;;;25.20;93.10;;;;;;5064230;28;20091;-75
2021/08/10 09:46:58;;;;;;;7.70;3.80;;;25.30;93.30;;;;;;5064528;28;20012;-75
2021/08/10 09:49:42;;;;;;;7.22;4.22;;;25.30;92.70;;;;;;5047241;28;20036;-74
2021/08/10 09:52:08;;;;;;;;;;;25.40;93.00;;;;;;5056728;28;20493;-75
2021/08/10 09:54:33;;;;;;;8.27;4.47;;;25.50;93.20;;;;;;5051495;28;19909;-75
2021/08/10 09:57:12;;;;;;;6.63;4.22;;;25.70;92.80;;;;;;5050204;28;20048;-75
2021/08/10 09:59:43;;;;;;;7.88;4.28;;;25.80;93.20;;;;;;5063930;28;20036;-75
2021/08/10 10:02:36;;;;;;;16.55;4.45;;;26.00;93.20;;;;;;5049232;28;20016;-74
2021/08/10 10:05:02;;;;;;;9.18;4.50;;;26.00;92.90;;;;;;5057132;28;20041;-74
2021/08/10 10:07:28;;;;;;;11.00;4.28;;;25.70;93.20;;;;;;5063922;28;20028;-75
2021/08/10 10:09:53;;;;;;;9.02;4.15;;;26.10;92.90;;;;;;5064678;28;20051;-74
2021/08/10 10:12:22;;;;;;;8.20;3.95;;;26.40;92.50;;;;;;5063696;28;20033;-74
2021/08/10 10:14:48;;;;;;;10.75;3.88;;;26.40;92.60;;;;;;5059488;28;20027;-74
2021/08/10 10:17:14;;;;;;;9.48;4.28;;;26.50;93.00;;;;;;5057494;28;20028;-74
2021/08/10 10:19:42;;;;;;;7.60;3.72;;;26.40;92.40;;;;;;5064708;28;20596;-74
2021/08/10 10:22:16;;;;;;;9.13;4.10;;;26.30;92.10;;;;;;5057579;28;20111;-74
2021/08/10 10:24:57;;;;;;;11.07;4.97;;;26.40;93.40;;;;;;5062001;28;20032;-74
2021/08/10 10:27:24;;;;;;;12.52;4.00;;;26.50;92.40;;;;;;5044664;28;20017;-74
2021/08/10 10:29:54;;;;;;;10.57;4.22;;;26.60;92.90;;;;;;5056568;28;20036;-74
2021/08/10 10:32:22;;;;;;;5.07;3.30;;;26.90;92.00;;;;;;5062941;28;20017;-74
2021/08/10 10:34:48;;;;;;;5.40;3.63;;;26.70;91.90;;;;;;5064147;28;20040;-75
2021/08/10 10:37:22;;;;;;;9.35;4.70;;;26.70;91.90;;;;;;5062424;28;20027;-74
2021/08/10 10:39:55;;;;;;;10.43;3.88;;;26.60;91.70;;;;;;5062964;28;20043;-75
2021/08/10 10:42:21;;;;;;;7.40;4.60;;;27.00;92.80;;;;;;5064399;28;20070;-75
2021/08/10 10:44:51;;;;;;;14.20;4.72;;;27.00;92.20;;;;;;5055911;28;20024;-75
2021/08/10 10:47:20;;;;;;;6.65;3.85;;;27.00;92.20;;;;;;5039741;28;20040;-74
2021/08/10 10:50:08;;;;;;;6.95;3.35;;;27.20;91.90;;;;;;5044204;28;20021;-74
2021/08/10 10:52:35;;;;;;;7.32;4.10;;;27.20;91.90;;;;;;5043372;28;20025;-74
2021/08/10 10:55:04;;;;;;;7.43;4.22;;;27.20;92.20;;;;;;5052105;28;20058;-75
2021/08/10 10:57:30;;;;;;;7.32;3.72;;;27.30;92.90;;;;;;5061997;28;20667;-75
2021/08/10 11:00:21;;;;;;;6.32;3.42;;;27.30;92.40;;;;;;5063991;28;20044;-75
2021/08/10 11:03:08;;;;;;;9.40;4.28;;;27.10;91.90;;;;;;5064113;28;20021;-75
2021/08/10 11:05:34;;;;;;;8.70;3.80;;;27.60;92.00;;;;;;5062220;28;20064;-75
2021/08/10 11:08:00;;;;;;;7.78;4.28;;;27.90;92.20;;;;;;5059251;28;20066;-75
2021/08/10 11:10:45;;;;;;;8.35;4.32;;;28.00;91.80;;;;;;5062109;28;20561;-75
2021/08/10 11:13:20;;;;;;;9.18;3.33;;;27.90;92.00;;;;;;5063915;28;20433;-75
2021/08/10 11:15:45;;;;;;;6.60;4.03;;;28.00;91.60;;;;;;5059625;28;20094;-75
2021/08/10 11:18:11;;;;;;;9.63;4.28;;;27.60;91.90;;;;;;5062976;28;20032;-75
2021/08/10 11:20:50;;;;;;;8.02;3.45;;;28.00;91.40;;;;;;5062797;28;20652;-75
2021/08/10 11:23:23;;;;;;;8.73;3.70;;;28.10;91.70;;;;;;5062112;28;20031;-75
2021/08/10 11:25:59;;;;;;;8.60;3.72;;;28.30;92.10;;;;;;5060053;28;20025;-75
2021/08/10 11:28:34;;;;;;;7.80;3.60;;;28.30;92.20;;;;;;5045508;28;20641;-75
2021/08/10 11:31:05;;;;;;;8.25;4.45;;;28.20;92.40;;;;;;5052267;28;20039;-75
2021/08/10 11:33:33;;;;;;;8.50;3.53;;;28.10;92.50;;;;;;5050860;28;20029;-75
2021/08/10 11:36:14;;;;;;;8.85;4.07;;;28.10;92.80;;;;;;5053485;28;20055;-75
2021/08/10 11:38:51;;;;;;;9.35;4.22;;;28.30;92.60;;;;;;5041734;28;20037;-75
2021/08/10 11:41:23;;;;;;;6.90;3.45;;;28.40;91.90;;;;;;5051537;28;20032;-75
2021/08/10 11:43:53;;;;;;;7.13;3.45;;;28.20;91.70;;;;;;5048015;28;20029;-75
2021/08/10 11:46:23;;;;;;;8.10;3.25;;;28.00;91.20;;;;;;5051857;28;20506;-75
2021/08/10 11:49:03;;;;;;;7.00;4.10;;;28.00;90.80;;;;;;5059391;28;20594;-75
2021/08/10 11:51:41;;;;;;;9.27;3.42;;;28.30;91.30;;;;;;5053681;28;20060;-75
2021/08/10 11:54:14;;;;;;;6.50;3.25;;;28.50;90.90;;;;;;5043604;28;20087;-75
2021/08/10 11:56:39;;;;;;;5.70;3.03;;;28.50;90.40;;;;;;5043007;28;20043;-75
2021/08/10 11:59:11;;;;;;;6.38;3.60;;;28.50;91.10;;;;;;5058658;28;20036;-75
2021/08/10 12:01:39;;;;;;;8.38;3.63;;;28.30;90.80;;;;;;5061602;28;20048;-75
2021/08/10 12:04:19;;;;;;;9.02;3.60;;;28.10;91.20;;;;;;5061165;28;20047;-75
2021/08/10 12:06:50;;;;;;;5.32;2.90;;;28.00;91.20;;;;;;5061722;28;20032;-75
2021/08/10 12:09:37;;;;;;;7.80;3.45;;;27.90;92.60;;;;;;5062946;28;20083;-75
2021/08/10 12:12:06;;;;;;;6.00;2.90;;;28.10;91.60;;;;;;5043307;28;20040;-75
2021/08/10 12:14:33;;;;;;;5.80;3.20;;;28.20;91.00;;;;;;5044118;28;20809;-75
2021/08/10 12:16:58;;;;;;;7.00;3.28;;;28.50;90.60;;;;;;5054578;28;20025;-76
2021/08/10 12:19:36;;;;;;;9.25;3.42;;;28.60;91.00;;;;;;5067064;28;20037;-75
2021/08/10 12:22:05;;;;;;;8.50;3.08;;;28.80;91.20;;;;;;5066092;28;20115;-75
2021/08/10 12:24:35;;;;;;;8.48;3.50;;;28.70;90.80;;;;;;5066945;28;20592;-76
2021/08/10 12:27:02;;;;;;;7.20;3.45;;;28.50;90.70;;;;;;5054775;28;20457;-75
2021/08/10 12:29:37;;;;;;;5.95;2.88;;;28.30;90.20;;;;;;5063675;28;20027;-75
2021/08/10 12:32:07;;;;;;;4.90;3.08;;;28.30;90.00;;;;;;5066738;28;20075;-75
2021/08/10 12:34:38;;;;;;;12.85;4.00;;;28.40;90.70;;;;;;5064246;28;20028;-75
2021/08/10 12:37:05;;;;;;;7.32;3.40;;;28.70;91.70;;;;;;5063294;28;20690;-75
2021/08/10 12:39:43;;;;;;;10.32;3.35;;;28.80;91.50;;;;;;5064064;28;20040;-75
2021/08/10 12:42:09;;;;;;;5.63;2.63;;;28.90;91.40;;;;;;5064590;28;20031;-75
2021/08/10 12:44:36;;;;;;;7.68;3.63;;;28.90;90.70;;;;;;5046589;28;20471;-75
2021/08/10 12:47:06;;;;;;;5.32;2.90;;;28.60;90.60;;;;;;5059562;28;20040;-75
2021/08/10 12:49:40;;;;;;;6.72;3.03;;;28.80;90.30;;;;;;5062121;28;20158;-75
2021/08/10 12:52:16;;;;;;;6.38;2.60;;;28.80;90.30;;;;;;5065119;28;20021;-76
2021/08/10 12:54:52;;;;;;;6.70;3.63;;;28.60;90.40;;;;;;5062084;28;20033;-76